createdAt,value
2023-01-01T00:02:24.932Z,13.60
2023-01-01T00:04:51.761Z,13.57
2023-01-01T00:07:18.650Z,13.58
2023-01-01T00:10:03.911Z,13.62
2023-01-01T00:12:32.517Z,13.46
2023-01-01T00:14:59.347Z,13.61
2023-01-01T00:17:26.188Z,13.81
2023-01-01T00:19:52.883Z,13.75
2023-01-01T00:25:06.934Z,13.82
2023-01-01T00:27:33.669Z,13.75
2023-01-01T00:30:00.389Z,13.80
2023-01-01T00:32:27.460Z,13.84
2023-01-01T00:34:54.141Z,13.83
2023-01-01T00:37:20.875Z,13.79
2023-01-01T00:39:47.640Z,13.86
2023-01-01T00:42:14.352Z,13.86
2023-01-01T00:44:41.133Z,13.92
2023-01-01T00:47:07.848Z,14.00
2023-01-01T00:49:34.510Z,14.05
2023-01-01T00:52:01.208Z,14.05
2023-01-01T00:54:29.165Z,14.11
2023-01-01T00:56:57.508Z,14.17
2023-01-01T00:59:28.657Z,14.13
2023-01-01T01:01:56.075Z,14.08
2023-01-01T01:04:23.265Z,14.16
2023-01-01T01:06:50.023Z,14.13
2023-01-01T01:09:17.063Z,14.12
2023-01-01T01:11:43.891Z,14.13
2023-01-01T01:14:10.783Z,14.16
2023-01-01T01:16:37.602Z,14.10
2023-01-01T01:19:06.035Z,14.07
2023-01-01T01:21:36.804Z,14.13
2023-01-01T01:24:04.109Z,14.32
2023-01-01T01:26:32.928Z,14.29
2023-01-01T01:29:00.683Z,14.26
2023-01-01T01:31:30.458Z,14.28
2023-01-01T01:33:57.715Z,14.21
2023-01-01T01:36:25.976Z,14.28
2023-01-01T01:38:53.310Z,14.24
2023-01-01T01:41:30.002Z,14.26
2023-01-01T01:44:02.712Z,14.28
2023-01-01T01:46:34.812Z,14.19
2023-01-01T01:49:06.322Z,14.26
2023-01-01T01:51:39.424Z,14.36
2023-01-01T01:54:10.952Z,14.36
2023-01-01T01:56:49.914Z,14.33
2023-01-01T01:59:19.091Z,14.34
2023-01-01T02:01:46.376Z,14.40
2023-01-01T02:04:13.308Z,14.43
2023-01-01T02:06:40.369Z,14.44
2023-01-01T02:09:08.840Z,14.37
2023-01-01T02:11:35.627Z,14.38
2023-01-01T02:14:03.515Z,14.39
2023-01-01T02:16:39.636Z,14.45
2023-01-01T02:19:26.360Z,14.41
2023-01-01T02:22:02.414Z,14.37
2023-01-01T02:24:41.160Z,14.43
2023-01-01T02:27:23.567Z,14.40
2023-01-01T02:30:10.695Z,14.34
2023-01-01T02:32:49.974Z,14.34
2023-01-01T02:35:35.427Z,14.34
2023-01-01T02:38:26.380Z,14.36
2023-01-01T02:40:59.708Z,14.28
2023-01-01T02:43:26.430Z,14.25
2023-01-01T02:45:54.080Z,14.26
2023-01-01T02:48:47.091Z,14.30
2023-01-01T02:51:22.820Z,14.33
2023-01-01T02:54:14.098Z,14.37
2023-01-01T02:56:45.680Z,14.35
2023-01-01T03:00:08.471Z,14.31
2023-01-01T03:02:51.244Z,14.34
2023-01-01T03:05:33.369Z,14.29
2023-01-01T03:08:14.658Z,14.30
2023-01-01T03:11:01.615Z,14.26
2023-01-01T03:13:44.751Z,14.24
2023-01-01T03:16:17.452Z,14.18
2023-01-01T03:19:13.543Z,14.29
2023-01-01T03:21:43.702Z,14.26
2023-01-01T03:24:30.933Z,14.20
2023-01-01T03:27:04.435Z,14.27
2023-01-01T03:29:34.907Z,14.25
2023-01-01T03:32:05.843Z,14.34
2023-01-01T03:34:37.299Z,14.26
2023-01-01T03:37:12.994Z,14.23
2023-01-01T03:39:47.993Z,14.18
2023-01-01T03:42:20.451Z,14.09
2023-01-01T03:45:04.240Z,14.03
2023-01-01T03:47:31.459Z,13.87
2023-01-01T03:49:59.738Z,13.67
2023-01-01T03:52:37.125Z,13.67
2023-01-01T03:55:12.602Z,13.53
2023-01-01T03:57:57.484Z,13.44
2023-01-01T04:00:28.279Z,13.38
2023-01-01T04:02:59.399Z,13.31
2023-01-01T04:05:27.842Z,13.23
2023-01-01T04:07:55.616Z,13.13
2023-01-01T04:10:24.447Z,13.00
2023-01-01T04:12:56.224Z,12.88
2023-01-01T04:15:25.787Z,12.81
2023-01-01T04:17:53.952Z,12.73
2023-01-01T04:20:21.531Z,12.69
2023-01-01T04:22:48.360Z,12.70
2023-01-01T04:25:17.437Z,12.60
2023-01-01T04:27:44.674Z,12.62
2023-01-01T04:30:13.607Z,12.66
2023-01-01T04:32:40.682Z,12.65
2023-01-01T04:35:08.943Z,12.63
2023-01-01T04:37:36.629Z,12.62
2023-01-01T04:40:04.551Z,12.63
2023-01-01T04:42:31.693Z,12.65
2023-01-01T04:44:58.380Z,12.68
2023-01-01T04:47:26.985Z,12.70
2023-01-01T04:49:54.829Z,12.69
2023-01-01T04:52:24.010Z,12.72
2023-01-01T04:54:50.660Z,12.79
2023-01-01T04:57:17.427Z,12.84
2023-01-01T04:59:44.221Z,12.91
2023-01-01T05:02:12.973Z,12.95
2023-01-01T05:04:39.794Z,13.03
2023-01-01T05:07:06.427Z,13.10
2023-01-01T05:09:33.127Z,13.07
2023-01-01T05:11:59.893Z,13.06
2023-01-01T05:14:26.572Z,12.98
2023-01-01T05:16:53.571Z,12.85
2023-01-01T05:19:20.272Z,12.82
2023-01-01T05:21:47.159Z,12.79
2023-01-01T05:24:14.121Z,12.75
2023-01-01T05:26:43.384Z,12.67
2023-01-01T05:29:16.067Z,12.64
2023-01-01T05:31:43.609Z,12.65
2023-01-01T05:34:10.447Z,12.64
2023-01-01T05:36:39.200Z,12.72
2023-01-01T05:39:12.085Z,12.59
2023-01-01T05:41:39.926Z,12.72
2023-01-01T05:44:11.222Z,12.74
2023-01-01T05:46:39.402Z,12.81
2023-01-01T05:49:06.200Z,12.84
2023-01-01T05:54:01.289Z,12.86
2023-01-01T05:56:29.607Z,12.86
2023-01-01T05:58:56.709Z,12.97
2023-01-01T06:01:26.720Z,12.95
2023-01-01T06:03:55.141Z,12.90
2023-01-01T06:06:25.186Z,12.92
2023-01-01T06:08:57.640Z,12.92
2023-01-01T06:11:24.713Z,12.96
2023-01-01T06:13:56.304Z,12.89
2023-01-01T06:16:23.525Z,12.94
2023-01-01T06:18:51.064Z,12.99
2023-01-01T06:21:20.135Z,12.96
2023-01-01T06:23:46.921Z,13.03
2023-01-01T06:26:25.578Z,12.97
2023-01-01T06:28:52.432Z,13.10
2023-01-01T06:31:21.366Z,13.06
2023-01-01T06:33:49.089Z,13.04
2023-01-01T06:36:18.729Z,12.98
2023-01-01T06:38:47.656Z,13.02
2023-01-01T06:41:17.095Z,12.95
2023-01-01T06:43:44.219Z,12.96
2023-01-01T06:46:24.379Z,12.90
2023-01-01T06:49:04.820Z,12.81
2023-01-01T06:51:34.307Z,12.74
2023-01-01T06:54:03.145Z,12.70
2023-01-01T06:56:30.913Z,12.60
2023-01-01T06:58:58.469Z,12.62
2023-01-01T07:01:28.386Z,12.55
2023-01-01T07:03:57.487Z,12.63
2023-01-01T07:06:25.735Z,12.65
2023-01-01T07:08:52.963Z,12.64
2023-01-01T07:11:20.268Z,12.62
2023-01-01T07:13:47.336Z,12.59
2023-01-01T07:16:14.463Z,12.59
2023-01-01T07:18:41.427Z,12.59
2023-01-01T07:21:29.143Z,12.67
2023-01-01T07:23:58.500Z,12.71
2023-01-01T07:26:30.073Z,12.71
2023-01-01T07:29:02.852Z,12.69
2023-01-01T07:31:33.420Z,12.79
2023-01-01T07:34:00.389Z,12.81
2023-01-01T07:36:27.292Z,12.78
2023-01-01T07:38:54.123Z,12.80
2023-01-01T07:41:20.900Z,12.78
2023-01-01T07:43:47.704Z,12.78
2023-01-01T07:46:22.066Z,12.85
2023-01-01T07:48:49.076Z,12.80
2023-01-01T07:51:15.829Z,12.82
2023-01-01T07:53:42.565Z,12.92
2023-01-01T07:56:09.538Z,12.91
2023-01-01T07:58:40.210Z,12.90
2023-01-01T08:01:09.651Z,12.99
2023-01-01T08:03:36.522Z,13.00
2023-01-01T08:06:11.842Z,13.04
2023-01-01T08:08:39.446Z,13.03
2023-01-01T08:11:06.252Z,13.02
2023-01-01T08:13:32.939Z,13.04
2023-01-01T08:15:59.762Z,13.02
2023-01-01T08:18:26.730Z,12.94
2023-01-01T08:20:54.350Z,12.90
2023-01-01T08:23:21.300Z,12.84
2023-01-01T08:25:48.219Z,12.85
2023-01-01T08:28:15.041Z,12.82
2023-01-01T08:30:41.837Z,12.85
2023-01-01T08:33:08.530Z,12.87
2023-01-01T08:35:40.628Z,13.00
2023-01-01T08:38:07.330Z,12.98
2023-01-01T08:40:34.273Z,13.02
2023-01-01T08:43:04.061Z,13.01
2023-01-01T08:45:30.720Z,13.00
2023-01-01T08:47:57.670Z,13.02
2023-01-01T08:50:24.449Z,13.02
2023-01-01T08:52:51.185Z,13.01
2023-01-01T08:55:18.028Z,13.03
2023-01-01T08:57:44.698Z,13.05
2023-01-01T09:00:13.616Z,13.06
2023-01-01T09:02:40.429Z,13.07
2023-01-01T09:05:07.837Z,13.00
2023-01-01T09:07:34.610Z,12.98
2023-01-01T09:10:01.589Z,12.98
2023-01-01T09:12:28.515Z,13.07
2023-01-01T09:14:55.189Z,13.07
2023-01-01T09:17:21.889Z,13.10
2023-01-01T09:19:48.553Z,13.07
2023-01-01T09:22:15.332Z,13.04
2023-01-01T09:24:42.115Z,13.10
2023-01-01T09:27:08.972Z,13.03
2023-01-01T09:29:35.756Z,13.06
2023-01-01T09:32:02.485Z,12.93
2023-01-01T09:34:29.261Z,12.95
2023-01-01T09:36:56.027Z,12.83
2023-01-01T09:39:22.715Z,12.87
2023-01-01T09:42:15.679Z,12.85
2023-01-01T09:45:05.116Z,12.91
2023-01-01T09:47:40.739Z,12.91
2023-01-01T09:50:13.937Z,12.89
2023-01-01T09:53:04.200Z,12.88
2023-01-01T09:55:37.756Z,12.81
2023-01-01T09:58:04.446Z,12.82
2023-01-01T10:00:34.762Z,12.77
2023-01-01T10:03:19.513Z,12.74
2023-01-01T10:06:22.838Z,12.70
2023-01-01T10:09:10.761Z,12.65
2023-01-01T10:11:55.847Z,12.64
2023-01-01T10:14:25.564Z,12.58
2023-01-01T10:16:57.827Z,12.51
2023-01-01T10:19:37.803Z,12.50
2023-01-01T10:22:11.267Z,12.50
2023-01-01T10:24:50.522Z,12.55
2023-01-01T10:27:24.207Z,12.49
2023-01-01T10:29:55.509Z,12.47
2023-01-01T10:32:30.810Z,12.45
2023-01-01T10:34:58.246Z,12.39
2023-01-01T10:37:28.413Z,12.41
2023-01-01T10:39:55.147Z,12.36
2023-01-01T10:42:21.896Z,12.37
2023-01-01T10:44:52.569Z,12.37
2023-01-01T10:47:28.760Z,12.38
2023-01-01T10:50:08.027Z,12.40
2023-01-01T10:52:41.389Z,12.39
2023-01-01T10:55:23.756Z,12.43
2023-01-01T10:57:50.526Z,12.42
2023-01-01T11:00:26.178Z,12.36
2023-01-01T11:03:30.176Z,12.42
2023-01-01T11:06:17.490Z,12.41
2023-01-01T11:08:50.504Z,12.37
2023-01-01T11:11:27.328Z,12.41
2023-01-01T11:13:58.250Z,12.36
2023-01-01T11:16:27.120Z,12.41
2023-01-01T11:19:02.295Z,12.44
2023-01-01T11:21:29.295Z,12.43
2023-01-01T11:24:20.287Z,12.38
2023-01-01T11:26:53.954Z,12.39
2023-01-01T11:29:29.043Z,12.39
2023-01-01T11:31:58.816Z,12.36
2023-01-01T11:34:25.426Z,12.38
2023-01-01T11:36:52.449Z,12.38
2023-01-01T11:39:26.948Z,12.35
2023-01-01T11:41:56.513Z,12.37
2023-01-01T11:44:45.579Z,12.39
2023-01-01T11:47:27.489Z,12.41
2023-01-01T11:49:56.696Z,12.42
2023-01-01T11:52:44.488Z,12.44
2023-01-01T11:55:32.949Z,12.42
2023-01-01T11:58:04.306Z,12.40
2023-01-01T12:00:34.966Z,12.45
2023-01-01T12:03:21.085Z,12.53
2023-01-01T12:05:55.057Z,12.54
2023-01-01T12:08:31.690Z,12.46
2023-01-01T12:11:19.885Z,12.53
2023-01-01T12:14:13.460Z,12.52
2023-01-01T12:17:15.243Z,12.47
2023-01-01T12:19:53.469Z,12.38
2023-01-01T12:22:20.277Z,12.39
2023-01-01T12:24:48.528Z,12.37
2023-01-01T12:27:18.366Z,12.46
2023-01-01T12:29:51.085Z,12.43
2023-01-01T12:32:26.570Z,12.41
2023-01-01T12:35:22.424Z,12.47
2023-01-01T12:37:55.493Z,12.46
2023-01-01T12:41:06.803Z,12.50
2023-01-01T12:43:53.718Z,12.51
2023-01-01T12:46:45.172Z,12.54
2023-01-01T12:49:50.498Z,12.48
2023-01-01T12:52:37.842Z,12.47
2023-01-01T12:55:23.124Z,12.51
2023-01-01T12:58:10.307Z,12.52
2023-01-01T13:00:43.372Z,12.51
2023-01-01T13:03:23.814Z,12.47
2023-01-01T13:05:53.936Z,12.48
2023-01-01T13:08:20.801Z,12.48
2023-01-01T13:10:53.353Z,12.46
2023-01-01T13:13:20.535Z,12.49
2023-01-01T13:15:50.261Z,12.40
2023-01-01T13:18:19.496Z,12.39
2023-01-01T13:20:58.453Z,12.39
2023-01-01T13:23:38.616Z,12.36
2023-01-01T13:26:17.635Z,12.34
2023-01-01T13:28:59.529Z,12.32
2023-01-01T13:31:38.589Z,12.35
2023-01-01T13:34:30.183Z,12.36
2023-01-01T13:37:15.531Z,12.34
2023-01-01T13:39:54.337Z,12.30
2023-01-01T13:43:02.313Z,12.30
2023-01-01T13:46:10.996Z,12.35
2023-01-01T13:48:42.773Z,12.30
2023-01-01T13:54:44.772Z,12.31
2023-01-01T13:57:23.580Z,12.25
2023-01-01T14:00:28.287Z,12.26
2023-01-01T14:03:00.605Z,12.22
2023-01-01T14:05:33.627Z,12.29
2023-01-01T14:08:00.440Z,12.20
2023-01-01T14:10:28.712Z,12.19
2023-01-01T14:13:15.584Z,12.15
2023-01-01T14:15:53.919Z,12.14
2023-01-01T14:18:32.271Z,12.18
2023-01-01T14:20:59.245Z,12.17
2023-01-01T14:23:39.089Z,12.16
2023-01-01T14:26:12.654Z,12.16
2023-01-01T14:28:40.276Z,12.18
2023-01-01T14:31:20.046Z,12.12
2023-01-01T14:33:47.057Z,12.12
2023-01-01T14:36:25.758Z,12.12
2023-01-01T14:38:54.723Z,12.09
2023-01-01T14:41:41.201Z,12.03
2023-01-01T14:44:14.283Z,11.93
2023-01-01T14:46:46.993Z,11.94
2023-01-01T14:49:22.373Z,11.88
2023-01-01T14:51:59.923Z,11.84
2023-01-01T14:54:36.971Z,11.84
2023-01-01T14:57:10.760Z,11.77
2023-01-01T14:59:46.569Z,11.73
2023-01-01T15:02:15.552Z,11.73
2023-01-01T15:04:43.206Z,11.68
2023-01-01T15:07:31.233Z,11.67
2023-01-01T15:10:01.278Z,11.56
2023-01-01T15:12:28.639Z,11.58
2023-01-01T15:14:56.509Z,11.65
2023-01-01T15:17:26.128Z,11.71
2023-01-01T15:20:23.729Z,11.66
2023-01-01T15:22:51.940Z,11.78
2023-01-01T15:25:19.765Z,11.73
2023-01-01T15:27:54.994Z,11.72
2023-01-01T15:30:28.665Z,11.64
2023-01-01T15:32:56.435Z,11.66
2023-01-01T15:35:32.710Z,11.62
2023-01-01T15:38:02.992Z,11.58
2023-01-01T15:40:33.742Z,11.57
2023-01-01T15:43:00.416Z,11.55
2023-01-01T15:45:38.844Z,11.45
2023-01-01T15:48:05.607Z,11.41
2023-01-01T15:51:00.251Z,11.39
2023-01-01T15:53:29.245Z,11.41
2023-01-01T15:56:05.777Z,11.34
2023-01-01T15:58:40.484Z,11.35
2023-01-01T16:01:11.320Z,11.34
2023-01-01T16:03:40.091Z,11.27
2023-01-01T16:06:07.563Z,11.20
2023-01-01T16:08:34.302Z,11.18
2023-01-01T16:11:01.214Z,11.22
2023-01-01T16:13:27.920Z,11.15
2023-01-01T16:16:00.103Z,11.24
2023-01-01T16:18:37.684Z,11.25
2023-01-01T16:21:05.463Z,11.14
2023-01-01T16:23:32.215Z,11.11
2023-01-01T16:25:58.871Z,11.16
2023-01-01T16:28:25.528Z,11.20
2023-01-01T16:30:52.388Z,11.21
2023-01-01T16:33:22.703Z,11.36
2023-01-01T16:35:49.508Z,11.40
2023-01-01T16:38:16.440Z,11.32
2023-01-01T16:40:43.188Z,11.24
2023-01-01T16:43:16.915Z,11.24
2023-01-01T16:45:44.490Z,11.34
2023-01-01T16:48:11.281Z,11.30
2023-01-01T16:50:37.978Z,11.31
2023-01-01T16:53:04.702Z,11.20
2023-01-01T16:55:31.526Z,11.19
2023-01-01T16:58:21.128Z,11.18
2023-01-01T17:00:45.240Z,11.12
2023-01-01T17:03:11.978Z,11.13
2023-01-01T17:05:43.835Z,11.09
2023-01-01T17:08:11.198Z,11.14
2023-01-01T17:10:37.837Z,11.12
2023-01-01T17:13:04.582Z,11.21
2023-01-01T17:15:32.408Z,11.16
2023-01-01T17:17:59.300Z,11.23
2023-01-01T17:20:27.375Z,11.23
2023-01-01T17:22:54.733Z,11.14
2023-01-01T17:25:22.017Z,11.03
2023-01-01T17:27:48.808Z,11.04
2023-01-01T17:30:15.564Z,11.12
2023-01-01T17:32:42.211Z,11.01
2023-01-01T17:35:09.447Z,11.03
2023-01-01T17:37:36.223Z,10.87
2023-01-01T17:40:02.959Z,10.81
2023-01-01T17:42:29.964Z,10.86
2023-01-01T17:44:56.768Z,10.74
2023-01-01T17:47:26.698Z,11.00
2023-01-01T17:49:56.112Z,10.88
2023-01-01T17:52:22.804Z,10.81
2023-01-01T17:54:49.666Z,10.93
2023-01-01T17:57:17.094Z,10.84
2023-01-01T17:59:43.805Z,10.77
2023-01-01T18:02:13.254Z,10.79
2023-01-01T18:04:40.780Z,10.75
2023-01-01T18:07:07.585Z,10.72
2023-01-01T18:09:34.435Z,10.78
2023-01-01T18:12:01.298Z,10.95
2023-01-01T18:14:28.040Z,10.90
2023-01-01T18:16:54.711Z,10.82
2023-01-01T18:19:21.591Z,10.58
2023-01-01T18:21:48.259Z,10.61
2023-01-01T18:24:15.808Z,10.61
2023-01-01T18:26:43.097Z,10.58
2023-01-01T18:29:09.807Z,10.58
2023-01-01T18:31:36.564Z,10.54
2023-01-01T18:34:04.370Z,10.62
2023-01-01T18:36:33.645Z,10.71
2023-01-01T18:39:06.857Z,10.74
2023-01-01T18:41:48.626Z,10.74
2023-01-01T18:44:25.649Z,10.84
2023-01-01T18:47:12.110Z,11.04
2023-01-01T18:49:39.769Z,10.83
2023-01-01T18:52:06.417Z,10.82
2023-01-01T18:54:34.095Z,10.81
2023-01-01T18:57:17.608Z,10.83
2023-01-01T18:59:44.323Z,10.89
2023-01-01T19:02:29.209Z,10.90
2023-01-01T19:05:06.520Z,10.84
2023-01-01T19:07:33.194Z,10.81
2023-01-01T19:10:00.424Z,10.85
2023-01-01T19:12:28.533Z,10.77
2023-01-01T19:14:55.272Z,10.69
2023-01-01T19:17:23.560Z,10.61
2023-01-01T19:19:52.542Z,10.63
2023-01-01T19:22:30.858Z,10.65
2023-01-01T19:24:57.656Z,10.78
2023-01-01T19:27:24.851Z,10.88
2023-01-01T19:29:52.708Z,10.69
2023-01-01T19:32:20.840Z,10.76
2023-01-01T19:34:47.655Z,10.71
2023-01-01T19:37:14.547Z,10.81
2023-01-01T19:39:41.455Z,10.86
2023-01-01T19:42:08.271Z,10.78
2023-01-01T19:44:36.711Z,10.75
2023-01-01T19:47:09.103Z,10.72
2023-01-01T19:49:35.910Z,10.78
2023-01-01T19:52:03.735Z,10.83
2023-01-01T19:54:30.515Z,10.79
2023-01-01T19:56:57.253Z,10.91
2023-01-01T19:59:27.786Z,10.66
2023-01-01T20:02:25.822Z,10.57
2023-01-01T20:04:44.588Z,10.62
2023-01-01T20:07:11.321Z,10.72
2023-01-01T20:09:38.080Z,10.61
2023-01-01T20:12:04.800Z,10.75
2023-01-01T20:14:31.499Z,10.72
2023-01-01T20:16:58.251Z,10.62
2023-01-01T20:19:24.902Z,10.69
2023-01-01T20:22:10.152Z,10.77
2023-01-01T20:24:39.118Z,10.67
2023-01-01T20:27:05.824Z,10.64
2023-01-01T20:29:32.543Z,10.65
2023-01-01T20:31:59.458Z,10.56
2023-01-01T20:34:26.919Z,10.57
2023-01-01T20:37:12.161Z,10.54
2023-01-01T20:39:39.012Z,10.62
2023-01-01T20:42:05.702Z,10.50
2023-01-01T20:44:32.456Z,10.47
2023-01-01T20:46:59.191Z,10.55
2023-01-01T20:49:25.879Z,10.60
2023-01-01T20:51:53.278Z,10.56
2023-01-01T20:54:21.653Z,10.65
2023-01-01T20:56:48.415Z,10.56
2023-01-01T20:59:35.332Z,10.68
2023-01-01T21:02:04.632Z,10.50
2023-01-01T21:04:31.660Z,10.54
2023-01-01T21:06:58.440Z,10.40
2023-01-01T21:09:25.173Z,10.53
2023-01-01T21:11:51.921Z,10.49
2023-01-01T21:14:21.380Z,10.59
2023-01-01T21:16:48.129Z,10.46
2023-01-01T21:19:15.165Z,10.50
2023-01-01T21:21:53.067Z,10.46
2023-01-01T21:24:32.841Z,10.49
2023-01-01T21:27:24.430Z,10.55
2023-01-01T21:29:57.463Z,10.51
2023-01-01T21:32:37.914Z,10.48
2023-01-01T21:35:14.874Z,10.52
2023-01-01T21:37:47.516Z,10.60
2023-01-01T21:40:29.419Z,10.57
2023-01-01T21:43:03.512Z,10.50
2023-01-01T21:45:42.664Z,10.49
2023-01-01T21:48:37.796Z,10.61
2023-01-01T21:51:19.792Z,10.56
2023-01-01T21:53:46.714Z,10.67
2023-01-01T21:56:31.203Z,10.60
2023-01-01T21:59:26.435Z,10.63
2023-01-01T22:01:59.880Z,10.68
2023-01-01T22:04:49.706Z,10.67
2023-01-01T22:10:35.856Z,10.72
2023-01-01T22:13:03.127Z,10.87
2023-01-01T22:15:40.345Z,10.82
2023-01-01T22:18:22.946Z,10.76
2023-01-01T22:20:50.576Z,10.67
2023-01-01T22:23:20.408Z,10.65
2023-01-01T22:25:47.744Z,10.66
2023-01-01T22:28:19.803Z,10.70
2023-01-01T22:30:47.073Z,10.72
2023-01-01T22:33:22.546Z,10.58
2023-01-01T22:35:49.214Z,10.64
2023-01-01T22:38:21.518Z,10.61
2023-01-01T22:40:51.465Z,10.53
2023-01-01T22:43:25.463Z,10.55
2023-01-01T22:45:52.126Z,10.62
2023-01-01T22:48:34.781Z,10.59
2023-01-01T22:51:07.287Z,10.64
2023-01-01T22:53:33.985Z,10.63
2023-01-01T22:56:00.663Z,10.61
2023-01-01T22:58:27.304Z,10.65
2023-01-01T23:00:54.017Z,10.57
2023-01-01T23:03:20.716Z,10.54
2023-01-01T23:05:47.615Z,10.51
2023-01-01T23:08:14.414Z,10.53
2023-01-01T23:10:41.126Z,10.51
2023-01-01T23:13:27.632Z,10.55
2023-01-01T23:16:02.440Z,10.42
2023-01-01T23:18:35.474Z,10.42
2023-01-01T23:21:05.287Z,10.40
2023-01-01T23:23:32.433Z,10.36
2023-01-01T23:26:00.256Z,10.37
2023-01-01T23:28:30.227Z,10.34
2023-01-01T23:30:59.790Z,10.34
2023-01-01T23:33:27.589Z,10.31
2023-01-01T23:35:54.382Z,10.31
2023-01-01T23:38:21.663Z,10.33
2023-01-01T23:40:48.390Z,10.39
2023-01-01T23:43:15.079Z,10.30
2023-01-01T23:45:41.852Z,10.31
2023-01-01T23:48:09.035Z,10.27
2023-01-01T23:50:35.929Z,10.24
2023-01-01T23:53:02.648Z,10.29
2023-01-01T23:55:29.387Z,10.32
2023-01-01T23:57:56.187Z,10.29
